Time;durP1;ratioP1;P1;durP2;ratioP2;P2;SDS_P1;SDS_P2;PMS_P1;PMS_P2;Temp;Humidity;BMP_temperature;BMP_pressure;BME280_temperature;BME280_humidity;BME280_pressure;Samples;Min_cycle;Max_cycle;Signal;HPM_P1;HPM_P2
2023/01/09 00:01:27;;;;;;;129.20;16.50;;;;;;;5.66;100.00;96374.00;4955730;28;20600;-55
2023/01/09 00:03:52;;;;;;;120.50;17.45;;;;;;;5.67;100.00;96374.84;4957880;28;20058;-55
2023/01/09 00:06:17;;;;;;;118.70;15.77;;;;;;;5.59;100.00;96370.63;4957318;28;20123;-56
2023/01/09 00:08:43;;;;;;;95.72;15.32;;;;;;;5.62;100.00;96363.72;4957789;28;20039;-56
2023/01/09 00:11:09;;;;;;;130.57;17.23;;;;;;;5.64;100.00;96362.00;4955989;28;20061;-55
2023/01/09 00:13:34;;;;;;;118.72;16.98;;;;;;;5.58;100.00;96361.19;4956555;28;20023;-54
2023/01/09 00:15:59;;;;;;;105.13;16.23;;;;;;;5.64;100.00;96349.09;4956387;28;20540;-53
2023/01/09 00:18:25;;;;;;;133.75;18.90;;;;;;;5.62;100.00;96348.25;4957659;28;20086;-55
2023/01/09 00:20:51;;;;;;;105.80;14.18;;;;;;;5.57;100.00;96354.31;4956721;28;20038;-55
2023/01/09 00:23:16;;;;;;;91.43;13.98;;;;;;;5.66;100.00;96339.59;4957355;28;20362;-55
2023/01/09 00:25:41;;;;;;;78.45;14.23;;;;;;;5.66;100.00;96330.16;4958024;28;20039;-53
2023/01/09 00:28:07;;;;;;;58.15;9.40;;;;;;;5.42;100.00;96336.41;4958568;28;20066;-55
2023/01/09 00:30:32;;;;;;;77.10;13.73;;;;;;;5.51;100.00;96326.00;4958386;28;20571;-55
2023/01/09 00:32:58;;;;;;;79.80;15.98;;;;;;;5.50;100.00;96332.03;4958838;28;20030;-54
2023/01/09 00:35:26;;;;;;;83.95;14.82;;;;;;;5.37;100.00;96325.28;4959714;28;20400;-56
2023/01/09 00:37:51;;;;;;;100.75;16.98;;;;;;;5.48;100.00;96326.03;4960072;28;20027;-53
2023/01/09 00:40:17;;;;;;;109.13;17.38;;;;;;;5.49;100.00;96325.16;4958094;28;20030;-53
2023/01/09 00:42:53;;;;;;;88.60;16.20;;;;;;;5.40;100.00;96320.09;4959625;28;20680;-53
2023/01/09 00:45:27;;;;;;;90.78;14.82;;;;;;;5.50;100.00;96321.72;4959869;28;20031;-52
2023/01/09 00:47:56;;;;;;;103.10;16.60;;;;;;;5.62;100.00;96315.59;4960172;28;20144;-53
2023/01/09 00:50:25;;;;;;;105.85;15.32;;;;;;;5.56;100.00;96308.75;4957913;28;20039;-54
2023/01/09 00:52:53;;;;;;;121.75;16.15;;;;;;;5.46;100.00;96307.16;4953885;28;20396;-52
2023/01/09 00:55:19;;;;;;;80.90;14.23;;;;;;;5.49;100.00;96301.94;4958142;28;20058;-53
2023/01/09 00:57:45;;;;;;;58.25;10.57;;;;;;;5.49;100.00;96296.78;4960067;28;20820;-54
2023/01/09 01:00:11;;;;;;;108.55;15.65;;;;;;;5.59;100.00;96298.41;4958474;28;20463;-53
2023/01/09 01:02:36;;;;;;;75.97;13.15;;;;;;;5.59;100.00;96303.59;4959106;28;20066;-53
2023/01/09 01:07:45;;;;;;;74.45;14.07;;;;;;;5.70;100.00;96297.44;4960123;28;20041;-54
2023/01/09 01:10:19;;;;;;;101.93;15.25;;;;;;;5.45;100.00;96297.69;4957924;28;20030;-53
2023/01/09 01:12:45;;;;;;;82.43;14.00;;;;;;;5.42;100.00;96285.69;4958834;28;20817;-53
2023/01/09 01:15:11;;;;;;;87.07;12.85;;;;;;;5.34;100.00;96283.19;4958998;28;20034;-56
2023/01/09 01:17:38;;;;;;;79.28;13.15;;;;;;;5.32;100.00;96292.69;4958931;28;20101;-53
2023/01/09 01:20:06;;;;;;;73.78;12.70;;;;;;;5.38;100.00;96286.59;4959853;28;20033;-53
2023/01/09 01:22:32;;;;;;;76.60;12.13;;;;;;;5.43;100.00;96292.56;4954836;28;20208;-53
2023/01/09 01:24:57;;;;;;;88.07;13.20;;;;;;;5.62;100.00;96287.22;4957213;28;20019;-53
2023/01/09 01:27:23;;;;;;;94.15;12.95;;;;;;;5.54;100.00;96295.03;4958677;28;20031;-54
2023/01/09 01:29:48;;;;;;;99.93;14.50;;;;;;;5.55;100.00;96295.88;4958717;28;20034;-54
2023/01/09 01:32:14;;;;;;;65.30;12.32;;;;;;;5.60;100.00;96307.84;4958320;28;20200;-56
2023/01/09 01:34:39;;;;;;;84.00;12.52;;;;;;;5.56;100.00;96297.56;4959029;28;20038;-54
2023/01/09 01:37:04;;;;;;;82.97;13.60;;;;;;;5.36;100.00;96290.91;4958653;28;20035;-54
2023/01/09 01:39:30;;;;;;;91.45;14.55;;;;;;;5.37;100.00;96282.31;4958880;28;20030;-54
2023/01/09 01:41:56;;;;;;;61.03;11.20;;;;;;;5.28;100.00;96282.41;4957423;28;20027;-53
2023/01/09 01:44:55;;;;;;;71.90;11.70;;;;;;;5.33;100.00;96285.78;4960172;28;20030;-53
2023/01/09 01:47:24;;;;;;;87.57;13.57;;;;;;;5.31;100.00;96288.38;4958251;28;20091;-54
2023/01/09 01:49:50;;;;;;;110.45;14.63;;;;;;;5.36;100.00;96288.34;4958150;28;20121;-57
2023/01/09 01:52:18;;;;;;;93.90;13.90;;;;;;;5.51;100.00;96287.34;4955138;28;20105;-52
2023/01/09 01:54:44;;;;;;;80.00;9.18;;;;;;;5.44;100.00;96272.78;4956537;28;20081;-54
2023/01/09 01:57:10;;;;;;;74.50;12.45;;;;;;;5.37;100.00;96284.03;4958347;28;20508;-53
2023/01/09 01:59:48;;;;;;;92.68;15.30;;;;;;;5.44;100.00;96283.09;4958603;28;20035;-52
2023/01/09 02:02:19;;;;;;;91.47;12.45;;;;;;;5.46;100.00;96289.13;4954867;28;20046;-52
2023/01/09 02:04:47;;;;;;;84.18;11.55;;;;;;;5.40;100.00;96295.19;4956240;28;20097;-53
2023/01/09 02:07:12;;;;;;;85.35;12.50;;;;;;;5.47;100.00;96289.06;4958364;28;20043;-54
2023/01/09 02:09:40;;;;;;;107.82;16.45;;;;;;;5.42;100.00;96287.44;4957827;28;20541;-55
2023/01/09 02:12:22;;;;;;;94.35;14.30;;;;;;;5.40;100.00;96278.84;4956501;28;20035;-53
2023/01/09 02:14:49;;;;;;;;;;;;;;;5.37;100.00;96271.13;4959776;28;20031;-56
2023/01/09 02:17:31;;;;;;;86.13;14.13;;;;;;;5.30;100.00;96250.59;4958013;28;19958;-53
2023/01/09 02:20:28;;;;;;;99.63;14.30;;;;;;;5.42;100.00;96248.75;4957849;28;20023;-54
2023/01/09 02:23:22;;;;;;;101.50;15.20;;;;;;;5.43;100.00;96250.47;4958091;28;20049;-53
2023/01/09 02:25:53;;;;;;;78.93;13.40;;;;;;;5.34;100.00;96257.41;4923261;28;20068;-55
2023/01/09 02:28:49;;;;;;;75.47;13.07;;;;;;;5.49;100.00;96259.84;4959143;28;20027;-53
2023/01/09 02:31:24;;;;;;;101.82;14.30;;;;;;;5.44;100.00;96263.34;4958486;28;20039;-54
2023/01/09 02:34:26;;;;;;;82.88;12.88;;;;;;;5.48;100.00;96251.25;4958795;28;20037;-53
2023/01/09 02:37:06;;;;;;;90.93;13.50;;;;;;;5.50;100.00;96253.81;4945499;28;20155;-53
2023/01/09 02:40:01;;;;;;;81.55;15.07;;;;;;;5.54;100.00;96234.88;4962935;28;20026;-53
2023/01/09 02:42:28;;;;;;;83.43;14.70;;;;;;;5.61;100.00;96228.78;4929026;28;20050;-53
2023/01/09 02:44:53;;;;;;;69.20;13.43;;;;;;;5.56;100.00;96226.25;4962582;28;20392;-55
2023/01/09 02:47:22;;;;;;;101.55;15.02;;;;;;;5.62;100.00;96225.31;4961942;28;20728;-56
2023/01/09 02:49:53;;;;;;;107.75;14.75;;;;;;;5.69;100.00;96234.69;4963131;28;20081;-54
2023/01/09 02:52:29;;;;;;;90.37;13.07;;;;;;;5.52;100.00;96234.00;4961074;28;20070;-56
2023/01/09 02:55:17;;;;;;;80.38;13.73;;;;;;;5.58;100.00;96224.50;4962515;28;20329;-54
2023/01/09 02:57:54;;;;;;;99.40;15.70;;;;;;;5.33;100.00;96217.06;4962335;28;20065;-52
2023/01/09 03:00:41;;;;;;;94.43;15.13;;;;;;;5.37;100.00;96223.00;4960732;28;20102;-52
2023/01/09 03:03:10;;;;;;;83.05;14.25;;;;;;;5.39;100.00;96223.88;4961485;28;20034;-52
2023/01/09 03:06:04;;;;;;;115.07;17.10;;;;;;;5.41;100.00;96200.63;4961257;28;20031;-53
2023/01/09 03:08:40;;;;;;;94.40;15.70;;;;;;;5.36;100.00;96207.56;4961819;28;20088;-53
2023/01/09 03:11:07;;;;;;;95.20;13.93;;;;;;;5.44;100.00;96213.50;4959479;28;20113;-52
2023/01/09 03:13:40;;;;;;;102.80;16.85;;;;;;;5.39;100.00;96217.84;4949495;28;20078;-53
2023/01/09 03:16:10;;;;;;;86.30;12.45;;;;;;;5.11;100.00;96208.69;4961646;28;20043;-53
2023/01/09 03:18:38;;;;;;;106.13;16.50;;;;;;;5.15;100.00;96202.63;4961757;28;20529;-54
2023/01/09 03:21:06;;;;;;;84.60;14.10;;;;;;;5.17;100.00;96200.03;4960153;28;20676;-53
2023/01/09 03:23:57;;;;;;;87.55;14.93;;;;;;;5.18;100.00;96207.75;4961386;28;20606;-54
2023/01/09 03:26:24;;;;;;;76.05;13.18;;;;;;;5.14;100.00;96200.94;4961867;28;20095;-53
2023/01/09 03:28:50;;;;;;;92.40;14.43;;;;;;;5.24;100.00;96201.69;4962032;28;20614;-52
2023/01/09 03:31:16;;;;;;;69.55;14.30;;;;;;;5.33;100.00;96198.13;4960368;28;20735;-53
2023/01/09 03:33:42;;;;;;;77.75;12.85;;;;;;;5.32;100.00;96204.16;4961692;28;20117;-53
2023/01/09 03:36:09;;;;;;;87.28;14.48;;;;;;;5.30;100.00;96200.75;4962106;28;20035;-54
2023/01/09 03:38:34;;;;;;;87.00;14.55;;;;;;;5.26;100.00;96204.22;4962495;28;20038;-53
2023/01/09 03:41:00;;;;;;;122.70;17.65;;;;;;;5.12;100.00;96194.94;4960251;28;20034;-52
2023/01/09 03:43:25;;;;;;;80.57;14.07;;;;;;;5.12;100.00;96201.81;4961867;28;20110;-53
2023/01/09 03:45:51;;;;;;;52.28;8.77;;;;;;;5.21;100.00;96199.97;4960624;28;20049;-53
2023/01/09 03:48:16;;;;;;;80.00;14.25;;;;;;;5.08;100.00;96195.81;4960982;28;20030;-53
2023/01/09 03:50:44;;;;;;;91.03;14.07;;;;;;;5.14;100.00;96215.53;4960004;28;20054;-54
2023/01/09 03:53:12;;;;;;;113.45;15.18;;;;;;;5.19;100.00;96206.88;4960262;28;20121;-53
2023/01/09 03:55:38;;;;;;;68.65;13.68;;;;;;;5.21;100.00;96209.44;4960856;28;20412;-54
2023/01/09 03:58:03;;;;;;;94.15;16.05;;;;;;;5.10;100.00;96219.88;4961172;28;20031;-53
2023/01/09 04:00:28;;;;;;;59.17;12.68;;;;;;;5.20;100.00;96221.47;4961056;28;20046;-53
2023/01/09 04:02:54;;;;;;;69.38;11.95;;;;;;;5.27;100.00;96224.00;4960712;28;20073;-53
2023/01/09 04:05:19;;;;;;;100.93;16.35;;;;;;;5.20;100.00;96230.94;4960081;28;20089;-53
2023/01/09 04:07:44;;;;;;;83.25;13.82;;;;;;;5.31;100.00;96228.25;4961235;28;20031;-54
2023/01/09 04:10:10;;;;;;;93.90;15.23;;;;;;;5.34;100.00;96229.06;4960264;28;20075;-53
2023/01/09 04:12:36;;;;;;;72.57;11.77;;;;;;;5.39;100.00;96238.47;4961093;28;20687;-54
2023/01/09 04:15:01;;;;;;;81.05;16.02;;;;;;;5.47;100.00;96232.34;4960945;28;20507;-53
2023/01/09 04:17:27;;;;;;;97.78;16.63;;;;;;;5.38;100.00;96231.63;4960059;28;20070;-53
2023/01/09 04:19:52;;;;;;;80.78;13.43;;;;;;;5.47;100.00;96234.09;4960375;28;20070;-53
2023/01/09 04:22:17;;;;;;;72.43;13.38;;;;;;;5.58;100.00;96237.41;4960193;28;20065;-52
2023/01/09 04:24:43;;;;;;;70.50;13.43;;;;;;;5.64;100.00;96230.47;4960474;28;20105;-53
2023/01/09 04:27:08;;;;;;;80.55;14.70;;;;;;;5.57;100.00;96242.56;4960785;28;20035;-52
2023/01/09 04:29:33;;;;;;;78.45;15.00;;;;;;;5.59;100.00;96233.09;4960478;28;20038;-53
2023/01/09 04:31:59;;;;;;;54.15;7.70;;;;;;;5.55;100.00;96255.47;4959787;28;20640;-55
2023/01/09 04:34:24;;;;;;;80.57;13.13;;;;;;;5.63;100.00;96246.78;4960652;28;20382;-55
2023/01/09 04:36:53;;;;;;;75.55;14.30;;;;;;;5.62;100.00;96252.81;4959696;28;20050;-55
2023/01/09 04:39:19;;;;;;;71.68;14.18;;;;;;;5.66;100.00;96250.19;4961643;28;20027;-52
2023/01/09 04:41:48;;;;;;;89.60;13.52;;;;;;;5.76;100.00;96253.53;4958686;28;20098;-54
2023/01/09 04:44:17;;;;;;;72.80;13.25;;;;;;;5.69;100.00;96250.19;4960416;28;20034;-53
2023/01/09 04:46:43;;;;;;;63.55;7.63;;;;;;;5.64;100.00;96248.50;4959432;28;20846;-55
2023/01/09 04:49:08;;;;;;;79.82;13.82;;;;;;;5.86;100.00;96260.28;4958907;28;20090;-56
2023/01/09 04:51:33;;;;;;;87.25;13.98;;;;;;;5.91;100.00;96249.03;4958842;28;20035;-55
2023/01/09 04:53:59;;;;;;;77.40;12.00;;;;;;;5.82;100.00;96262.91;4959645;28;20071;-54
2023/01/09 04:56:24;;;;;;;75.88;14.02;;;;;;;5.96;100.00;96252.41;4960197;28;20043;-52
2023/01/09 04:58:50;;;;;;;84.35;14.52;;;;;;;6.08;100.00;96259.16;4959165;28;20034;-53
2023/01/09 05:01:15;;;;;;;84.25;14.18;;;;;;;5.95;100.00;96268.78;4958645;28;20031;-53
2023/01/09 05:03:40;;;;;;;65.03;12.35;;;;;;;5.97;100.00;96265.28;4960487;28;20023;-53
2023/01/09 05:06:06;;;;;;;100.20;15.40;;;;;;;6.06;100.00;96277.28;4959110;28;20046;-56
2023/01/09 05:08:31;;;;;;;71.93;12.60;;;;;;;5.99;100.00;96286.75;4960139;28;20023;-54
2023/01/09 05:10:57;;;;;;;85.97;13.85;;;;;;;6.06;100.00;96272.09;4958235;28;20801;-56
2023/01/09 05:13:22;;;;;;;66.50;12.52;;;;;;;6.08;100.00;96278.09;4959802;28;20217;-55
2023/01/09 05:15:47;;;;;;;63.38;13.15;;;;;;;6.18;100.00;96277.97;4959604;28;20101;-55
2023/01/09 05:18:13;;;;;;;88.72;16.08;;;;;;;6.20;100.00;96289.13;4959788;28;20138;-53
2023/01/09 05:20:38;;;;;;;79.18;14.93;;;;;;;6.28;100.00;96292.47;4958716;28;20036;-53
2023/01/09 05:23:04;;;;;;;66.53;10.88;;;;;;;6.20;100.00;96292.56;4959100;28;20038;-53
2023/01/09 05:25:29;;;;;;;77.07;14.48;;;;;;;6.21;100.00;96288.25;4959125;28;20517;-53
2023/01/09 05:27:54;;;;;;;74.63;13.73;;;;;;;6.22;100.00;96301.16;4959735;28;20932;-53
2023/01/09 05:30:20;;;;;;;78.07;9.63;;;;;;;6.18;100.00;96291.72;4958550;28;20027;-55
2023/01/09 05:32:45;;;;;;;68.15;12.60;;;;;;;6.28;100.00;96304.50;4959306;28;20035;-55
2023/01/09 05:35:10;;;;;;;67.03;11.68;;;;;;;6.28;100.00;96318.28;4959112;28;20085;-54
2023/01/09 05:37:36;;;;;;;73.18;14.32;;;;;;;6.24;100.00;96314.88;4953041;28;20473;-53
2023/01/09 05:40:01;;;;;;;92.95;14.02;;;;;;;6.28;100.00;96326.03;4958864;28;20034;-53
2023/01/09 05:42:27;;;;;;;100.93;15.32;;;;;;;6.37;100.00;96336.25;4958450;28;20042;-53
2023/01/09 05:44:52;;;;;;;83.72;16.02;;;;;;;6.40;100.00;96321.56;4959721;28;20102;-54
2023/01/09 05:47:17;;;;;;;85.13;15.73;;;;;;;6.48;100.00;96327.47;4958790;28;20599;-54
2023/01/09 05:49:43;;;;;;;111.72;13.90;;;;;;;6.34;100.00;96340.56;4959118;28;20795;-54
2023/01/09 05:52:08;;;;;;;72.95;14.77;;;;;;;6.45;100.00;96328.38;4958271;28;20046;-53
2023/01/09 05:54:33;;;;;;;94.15;14.35;;;;;;;6.41;100.00;96334.47;4958704;28;20027;-53
2023/01/09 05:56:59;;;;;;;68.70;9.70;;;;;;;6.51;100.00;96343.81;4958986;28;20667;-54
2023/01/09 05:59:24;;;;;;;80.60;14.32;;;;;;;6.37;100.00;96338.81;4960194;28;20018;-55
2023/01/09 06:01:50;;;;;;;81.72;14.90;;;;;;;6.49;100.00;96337.78;4957386;28;20125;-55
2023/01/09 06:04:15;;;;;;;62.25;9.18;;;;;;;6.54;100.00;96339.47;4959374;28;20117;-53
2023/01/09 06:06:40;;;;;;;87.82;14.75;;;;;;;6.62;100.00;96345.38;4958489;28;20111;-53
2023/01/09 06:09:06;;;;;;;75.88;13.57;;;;;;;6.81;100.00;96343.38;4958221;28;20023;-53
2023/01/09 06:11:34;;;;;;;75.72;13.48;;;;;;;6.79;100.00;96341.69;4961610;28;20109;-55
2023/01/09 06:14:00;;;;;;;67.40;12.38;;;;;;;6.69;100.00;96341.84;4963008;28;20023;-53
2023/01/09 06:16:26;;;;;;;73.60;12.05;;;;;;;6.84;100.00;96345.94;4962820;28;20865;-53
2023/01/09 06:18:51;;;;;;;81.53;13.70;;;;;;;7.00;100.00;96338.78;4962822;28;20162;-55
2023/01/09 06:21:16;;;;;;;54.42;8.98;;;;;;;7.08;100.00;96343.81;4961897;28;20507;-54
2023/01/09 06:23:42;;;;;;;59.60;7.25;;;;;;;7.02;100.00;96351.69;4962638;28;20660;-57
2023/01/09 06:26:07;;;;;;;63.03;8.93;;;;;;;7.16;100.00;96356.63;4961585;28;20042;-55
2023/01/09 06:28:32;;;;;;;59.15;9.65;;;;;;;7.49;100.00;96363.84;4960613;28;20030;-53
2023/01/09 06:30:58;;;;;;;94.55;11.65;;;;;;;7.62;100.00;96374.84;4959741;28;20134;-53
2023/01/09 06:33:23;;;;;;;78.82;12.90;;;;;;;8.10;100.00;96367.94;4963499;28;20035;-55
2023/01/09 06:35:48;;;;;;;60.45;9.20;;;;;;;7.75;100.00;96373.75;4962735;28;20038;-55
2023/01/09 06:38:14;;;;;;;76.47;12.25;;;;;;;7.75;100.00;96380.63;4962830;28;20449;-54
2023/01/09 06:40:39;;;;;;;83.60;11.82;;;;;;;8.68;100.00;96388.34;4961369;28;20043;-56
2023/01/09 06:43:05;;;;;;;86.72;14.23;;;;;;;8.15;100.00;96390.28;4962636;28;20062;-55
2023/01/09 06:45:30;;;;;;;90.68;13.85;;;;;;;8.19;100.00;96384.16;4962166;28;20030;-55
2023/01/09 06:47:55;;;;;;;76.85;10.32;;;;;;;8.57;100.00;96398.94;4962387;28;20130;-54
2023/01/09 06:50:21;;;;;;;80.30;11.60;;;;;;;9.14;100.00;96399.47;4961220;28;20085;-54
2023/01/09 06:52:46;;;;;;;74.75;9.02;;;;;;;8.70;100.00;96397.84;4961744;28;20054;-55
2023/01/09 06:55:12;;;;;;;79.10;11.48;;;;;;;9.11;100.00;96394.34;4961682;28;20034;-56
2023/01/09 06:57:37;;;;;;;157.15;13.65;;;;;;;9.32;100.00;96392.97;4962441;28;20034;-55
2023/01/09 07:00:03;;;;;;;62.28;8.57;;;;;;;9.54;100.00;96407.19;4961757;28;20037;-55
2023/01/09 07:02:28;;;;;;;73.47;8.38;;;;;;;9.20;100.00;96424.38;4956661;28;20065;-55
2023/01/09 07:04:54;;;;;;;52.38;5.55;;;;;;;8.55;100.00;96437.00;4961304;28;20026;-55
2023/01/09 07:07:21;;;;;;;56.28;5.50;;;;;;;8.12;100.00;96438.69;4961436;28;20074;-55
2023/01/09 07:09:46;;;;;;;77.35;7.00;;;;;;;7.87;100.00;96442.53;4960783;28;20030;-54
2023/01/09 07:12:13;;;;;;;60.03;5.80;;;;;;;7.65;100.00;96445.50;4960663;28;20618;-56
2023/01/09 07:14:39;;;;;;;81.45;6.72;;;;;;;7.72;100.00;96455.75;4961019;28;20031;-55
2023/01/09 07:17:04;;;;;;;72.35;7.22;;;;;;;10.15;100.00;96448.03;4961087;28;20039;-56
2023/01/09 07:19:30;;;;;;;72.43;6.63;;;;;;;8.18;100.00;96448.91;4961716;28;20023;-57
2023/01/09 07:21:55;;;;;;;51.13;4.80;;;;;;;7.86;100.00;96456.38;4960000;28;20493;-54
2023/01/09 07:24:20;;;;;;;39.40;4.63;;;;;;;7.67;100.00;96458.41;4961822;28;20766;-56
2023/01/09 07:26:46;;;;;;;67.05;5.85;;;;;;;7.75;100.00;96472.09;4960884;28;20834;-54
2023/01/09 07:29:11;;;;;;;54.17;5.35;;;;;;;7.79;100.00;96470.28;4962129;28;20058;-54
2023/01/09 07:31:37;;;;;;;48.13;4.93;;;;;;;7.89;100.00;96473.59;4959908;28;20035;-57
2023/01/09 07:34:03;;;;;;;54.42;5.13;;;;;;;7.66;100.00;96482.59;4961495;28;20023;-57
2023/01/09 07:36:28;;;;;;;52.42;5.35;;;;;;;7.78;100.00;96473.75;4961302;28;20101;-56
2023/01/09 07:38:53;;;;;;;61.13;5.55;;;;;;;7.19;100.00;96466.94;4961498;28;20126;-56
2023/01/09 07:41:19;;;;;;;48.10;4.88;;;;;;;7.25;100.00;96472.00;4958012;28;20038;-57
2023/01/09 07:43:44;;;;;;;59.38;5.93;;;;;;;7.73;100.00;96471.25;4960926;28;20038;-56
2023/01/09 07:46:10;;;;;;;53.13;5.55;;;;;;;8.50;100.00;96481.09;4960745;28;20042;-56
2023/01/09 07:48:35;;;;;;;55.17;5.05;;;;;;;8.79;100.00;96486.63;4961220;28;20025;-57
2023/01/09 07:51:00;;;;;;;69.93;7.32;;;;;;;9.13;100.00;96488.50;4959428;28;20042;-56
2023/01/09 07:53:26;;;;;;;62.60;6.10;;;;;;;9.74;100.00;96494.94;4961077;28;20053;-57
2023/01/09 07:55:51;;;;;;;57.60;6.30;;;;;;;9.62;100.00;96493.50;4960755;28;20059;-58
2023/01/09 07:58:17;;;;;;;50.25;5.78;;;;;;;10.02;100.00;96492.50;4961390;28;20042;-56
2023/01/09 08:00:42;;;;;;;47.20;5.18;;;;;;;9.48;100.00;96499.88;4960007;28;20026;-57
2023/01/09 08:03:07;;;;;;;58.38;6.13;;;;;;;9.93;100.00;96502.28;4960405;28;20041;-54
2023/01/09 08:05:33;;;;;;;53.25;6.75;;;;;;;10.10;100.00;96507.06;4960947;28;20035;-54
2023/01/09 08:07:58;;;;;;;55.85;5.47;;;;;;;9.66;100.00;96512.44;4961435;28;20031;-54
2023/01/09 08:10:24;;;;;;;63.60;7.10;;;;;;;9.98;100.00;96510.81;4959328;28;20109;-56
2023/01/09 08:12:49;;;;;;;45.90;6.35;;;;;;;10.10;100.00;96515.69;4960691;28;20038;-55
2023/01/09 08:15:16;;;;;;;63.60;7.15;;;;;;;9.69;100.00;96512.38;4960509;28;20049;-54
2023/01/09 08:17:43;;;;;;;59.80;7.60;;;;;;;10.87;100.00;96524.13;4960912;28;20038;-54
2023/01/09 08:20:11;;;;;;;64.97;7.85;;;;;;;9.52;100.00;96536.97;4958745;28;20033;-55
2023/01/09 08:22:37;;;;;;;54.88;6.75;;;;;;;9.65;100.00;96537.53;4959520;28;20023;-59
2023/01/09 08:25:03;;;;;;;58.63;6.72;;;;;;;10.78;100.00;96540.84;4960546;28;20025;-56
2023/01/09 08:27:29;;;;;;;80.45;8.57;;;;;;;9.95;100.00;96545.47;4959605;28;20039;-54
2023/01/09 08:29:54;;;;;;;74.38;7.90;;;;;;;9.06;100.00;96542.25;4960103;28;20081;-55
2023/01/09 08:32:19;;;;;;;55.88;5.43;;;;;;;8.87;100.00;96531.41;4958698;28;20277;-56
2023/01/09 08:34:45;;;;;;;54.88;5.68;;;;;;;9.92;100.00;96537.78;4959682;28;20026;-57
2023/01/09 08:37:10;;;;;;;53.15;6.75;;;;;;;10.60;100.00;96547.38;4960217;28;20109;-55
2023/01/09 08:39:36;;;;;;;75.43;7.75;;;;;;;10.05;100.00;96555.69;4959710;28;20612;-55
2023/01/09 08:47:32;;;;;;;48.67;5.72;;;;;;;9.09;100.00;96582.81;4959285;28;20057;-54
2023/01/09 08:49:58;;;;;;;53.70;5.13;;;;;;;9.38;100.00;96589.16;4959757;28;20023;-54
2023/01/09 08:52:24;;;;;;;57.70;6.13;;;;;;;9.68;100.00;96594.56;4959918;28;20405;-53
2023/01/09 08:54:49;;;;;;;74.13;7.43;;;;;;;9.75;100.00;96588.38;4959616;28;20381;-55
2023/01/09 08:57:14;;;;;;;47.38;4.72;;;;;;;9.42;100.00;96595.16;4959191;28;20039;-54
2023/01/09 08:59:40;;;;;;;81.80;7.63;;;;;;;9.56;100.00;96595.72;4958927;28;20097;-54
2023/01/09 09:02:05;;;;;;;54.03;6.15;;;;;;;10.15;100.00;96609.09;4958747;28;20051;-56
2023/01/09 09:04:31;;;;;;;58.85;5.95;;;;;;;9.24;100.00;96607.59;4959785;28;20134;-56
2023/01/09 09:06:56;;;;;;;59.70;5.28;;;;;;;9.00;100.00;96609.81;4959057;28;20121;-54
2023/01/09 09:09:21;;;;;;;43.83;4.43;;;;;;;8.79;100.00;96614.50;4959689;28;20031;-55
2023/01/09 09:11:47;;;;;;;50.33;5.28;;;;;;;8.99;100.00;96619.31;4958476;28;20039;-55
2023/01/09 09:16:56;;;;;;;56.08;5.05;;;;;;;9.54;100.00;96630.38;4956136;28;20906;-54
2023/01/09 09:19:22;;;;;;;57.60;5.72;;;;;;;9.14;100.00;96632.03;4958636;28;20108;-54
2023/01/09 09:21:47;;;;;;;54.13;5.65;;;;;;;9.15;100.00;96626.81;4957293;28;20536;-55
2023/01/09 09:24:12;;;;;;;64.57;6.00;;;;;;;9.77;100.00;96614.31;4959233;28;20023;-57
2023/01/09 09:26:38;;;;;;;39.13;4.65;;;;;;;9.19;100.00;96625.88;4955276;28;20874;-54
2023/01/09 09:29:03;;;;;;;56.92;5.15;;;;;;;9.75;100.00;96623.84;4958969;28;20054;-56
2023/01/09 09:31:29;;;;;;;56.10;5.43;;;;;;;9.80;100.00;96622.00;4957725;28;20045;-56
2023/01/09 09:33:55;;;;;;;55.30;5.45;;;;;;;9.62;100.00;96629.31;4959485;28;20563;-55
2023/01/09 09:36:20;;;;;;;69.18;7.18;;;;;;;9.44;100.00;96629.72;4958467;28;20083;-56
2023/01/09 09:38:46;;;;;;;62.05;6.18;;;;;;;9.27;100.00;96632.66;4959670;28;20027;-55
2023/01/09 09:44:42;;;;;;;62.88;6.05;;;;;;;9.41;100.00;96641.00;4958187;28;20393;-56
2023/01/09 09:47:04;;;;;;;;;;;;;;;8.79;100.00;96652.53;4960128;28;20128;-53
2023/01/09 09:50:04;;;;;;;62.45;5.53;;;;;;;9.70;100.00;96649.94;4959211;28;19972;-54
2023/01/09 09:53:11;;;;;;;67.43;5.88;;;;;;;9.46;100.00;96649.53;4956851;28;20066;-54
2023/01/09 09:55:39;;;;;;;61.30;5.63;;;;;;;10.13;100.00;96642.91;4910054;29;21003;-55
2023/01/09 09:58:33;;;;;;;48.83;5.28;;;;;;;9.54;100.00;96649.38;4952224;28;20045;-56
2023/01/09 10:01:00;;;;;;;58.80;5.22;;;;;;;10.33;100.00;96641.59;4948472;28;20034;-54
2023/01/09 10:03:32;;;;;;;48.47;5.07;;;;;;;10.48;100.00;96650.81;4959177;28;20062;-54
2023/01/09 10:06:01;;;;;;;51.22;4.57;;;;;;;9.58;100.00;96645.00;4958631;28;20623;-56
2023/01/09 10:08:41;;;;;;;57.45;4.93;;;;;;;10.33;100.00;96646.78;4959143;28;20195;-55
2023/01/09 10:11:15;;;;;;;46.13;4.63;;;;;;;9.36;100.00;96648.03;4956260;28;20469;-54
2023/01/09 10:16:43;;;;;;;45.60;4.80;;;;;;;9.58;100.00;96642.41;4958691;28;20077;-55
2023/01/09 10:19:20;;;;;;;40.60;4.70;;;;;;;10.43;100.00;96650.00;4959003;28;20027;-55
2023/01/09 10:21:53;;;;;;;51.63;5.30;;;;;;;10.15;100.00;96654.13;4957960;28;20050;-55
2023/01/09 10:24:33;;;;;;;44.35;4.00;;;;;;;10.22;100.00;96654.84;4959026;28;20049;-54
2023/01/09 10:27:08;;;;;;;65.38;5.93;;;;;;;11.16;100.00;96653.41;4956738;28;20584;-54
2023/01/09 10:30:18;;;;;;;47.80;4.72;;;;;;;10.58;100.00;96645.38;4958350;28;20050;-54
2023/01/09 10:33:00;;;;;;;42.85;4.30;;;;;;;10.44;100.00;96646.56;4947810;28;20149;-54
2023/01/09 10:35:34;;;;;;;40.03;4.60;;;;;;;10.18;100.00;96648.00;4958741;28;20662;-55
2023/01/09 10:38:02;;;;;;;55.60;5.15;;;;;;;10.08;100.00;96642.16;4958476;28;20043;-54
2023/01/09 10:40:34;;;;;;;52.42;4.95;;;;;;;9.76;100.00;96638.53;4957972;28;20035;-57
2023/01/09 10:43:03;;;;;;;43.17;4.43;;;;;;;9.67;100.00;96639.59;4958369;28;20035;-57
2023/01/09 10:45:43;;;;;;;44.08;4.47;;;;;;;10.61;100.00;96633.13;4958541;28;20046;-56
2023/01/09 10:48:36;;;;;;;49.65;4.57;;;;;;;9.82;100.00;96635.81;4959599;28;20481;-56
2023/01/09 10:51:17;;;;;;;55.35;5.20;;;;;;;9.47;100.00;96634.84;4957384;28;20130;-54
2023/01/09 10:53:47;;;;;;;51.17;4.25;;;;;;;9.46;100.00;96643.50;4957327;28;20130;-54
2023/01/09 10:56:35;;;;;;;63.25;5.47;;;;;;;9.21;100.00;96647.44;4959921;28;20038;-57
2023/01/09 10:59:01;;;;;;;39.45;4.45;;;;;;;9.51;100.00;96644.28;4962211;28;20617;-55
2023/01/09 11:01:29;;;;;;;56.95;5.60;;;;;;;9.91;100.00;96647.72;4960525;28;20747;-56
2023/01/09 11:03:58;;;;;;;44.78;4.80;;;;;;;9.47;100.00;96640.88;4961753;28;20084;-54
2023/01/09 11:06:38;;;;;;;61.75;5.70;;;;;;;9.96;100.00;96642.44;4961398;28;20042;-54
2023/01/09 11:09:04;;;;;;;50.58;4.53;;;;;;;11.26;100.00;96646.19;4962242;28;20059;-55
2023/01/09 11:11:33;;;;;;;60.55;5.47;;;;;;;10.77;100.00;96638.78;4960552;28;20069;-54
2023/01/09 11:14:12;;;;;;;50.30;4.65;;;;;;;11.01;100.00;96644.25;4961908;28;20053;-55
2023/01/09 11:16:37;;;;;;;56.63;5.05;;;;;;;11.41;100.00;96633.63;4961349;28;20723;-56
2023/01/09 11:19:03;;;;;;;43.97;4.32;;;;;;;11.05;100.00;96642.41;4962663;28;20038;-58
2023/01/09 11:21:38;;;;;;;49.53;5.20;;;;;;;10.28;100.00;96636.50;4959852;28;20043;-55
2023/01/09 11:24:22;;;;;;;45.38;4.05;;;;;;;10.35;100.00;96642.41;4961689;28;20086;-54
2023/01/09 11:26:50;;;;;;;51.30;4.50;;;;;;;10.49;100.00;96636.03;4959174;28;20134;-57
2023/01/09 11:29:17;;;;;;;46.10;4.60;;;;;;;10.54;100.00;96639.38;4962247;28;20566;-55
2023/01/09 11:31:54;;;;;;;56.30;5.30;;;;;;;10.50;100.00;96648.16;4960174;28;20077;-55
2023/01/09 11:34:22;;;;;;;51.58;4.70;;;;;;;10.63;100.00;96635.69;4961606;28;20362;-54
2023/01/09 11:36:50;;;;;;;58.88;5.43;;;;;;;10.10;100.00;96642.13;4961094;28;20137;-56
2023/01/09 11:39:30;;;;;;;38.97;4.07;;;;;;;10.20;100.00;96637.59;4962140;28;20131;-55
2023/01/09 11:42:01;;;;;;;60.60;5.07;;;;;;;9.45;100.00;96624.50;4959942;28;20421;-55
2023/01/09 11:44:30;;;;;;;43.20;4.47;;;;;;;10.14;100.00;96633.38;4961585;28;20037;-55